createdAt,value
2017-07-07T00:01:50.361Z,80.60
2017-07-07T00:03:52.162Z,80.45
2017-07-07T00:05:53.853Z,80.35
2017-07-07T00:07:55.628Z,79.06
2017-07-07T00:09:57.269Z,79.58
2017-07-07T00:11:58.986Z,79.39
2017-07-07T00:14:00.465Z,79.58
2017-07-07T00:16:02.035Z,78.52
2017-07-07T00:18:03.621Z,78.61
2017-07-07T00:20:05.134Z,78.52
2017-07-07T00:22:06.723Z,79.10
2017-07-07T00:24:08.285Z,79.10
2017-07-07T00:26:09.771Z,79.06
2017-07-07T00:28:11.457Z,78.58
2017-07-07T00:30:13.186Z,78.96
2017-07-07T00:32:14.655Z,78.58
2017-07-07T00:34:16.167Z,78.13
2017-07-07T00:36:17.864Z,77.36
2017-07-07T00:38:19.392Z,77.51
2017-07-07T00:40:20.871Z,78.19
2017-07-07T00:42:22.512Z,78.48
2017-07-07T00:44:24.037Z,77.81
2017-07-07T00:46:25.523Z,78.67
2017-07-07T00:48:27.203Z,78.48
2017-07-07T00:50:28.632Z,78.58
2017-07-07T00:52:30.116Z,78.86
2017-07-07T00:54:31.645Z,80.08
2017-07-07T00:56:34.231Z,79.98
2017-07-07T00:58:35.737Z,79.16
2017-07-07T01:00:37.233Z,79.25
2017-07-07T01:02:38.760Z,79.54
2017-07-07T01:04:40.250Z,80.27
2017-07-07T01:06:41.971Z,79.41
2017-07-07T01:08:43.674Z,79.50
2017-07-07T01:10:45.179Z,79.98
2017-07-07T01:12:46.711Z,81.14
2017-07-07T01:14:48.221Z,80.66
2017-07-07T01:16:49.788Z,80.85
2017-07-07T01:18:51.411Z,81.04
2017-07-07T01:20:52.907Z,80.46
2017-07-07T01:22:54.403Z,81.52
2017-07-07T01:24:55.864Z,81.52
2017-07-07T01:26:57.423Z,81.58
2017-07-07T01:28:59.211Z,82.06
2017-07-07T01:31:00.731Z,82.54
2017-07-07T01:33:02.204Z,82.45
2017-07-07T01:35:03.704Z,82.26
2017-07-07T01:37:05.402Z,82.45
2017-07-07T01:39:07.139Z,82.35
2017-07-07T01:41:08.861Z,82.06
2017-07-07T01:43:10.539Z,81.96
2017-07-07T01:45:12.219Z,82.35
2017-07-07T01:47:13.729Z,81.87
2017-07-07T01:49:15.338Z,82.74
2017-07-07T01:51:16.853Z,82.16
2017-07-07T01:53:18.330Z,82.45
2017-07-07T01:55:19.904Z,81.87
2017-07-07T01:57:21.554Z,81.14
2017-07-07T01:59:23.027Z,81.24
2017-07-07T02:01:24.518Z,80.94
2017-07-07T02:03:26.244Z,79.79
2017-07-07T02:05:27.727Z,80.60
2017-07-07T02:07:29.271Z,79.93
2017-07-07T02:09:30.796Z,79.83
2017-07-07T02:11:32.386Z,79.93
2017-07-07T02:13:33.903Z,80.02
2017-07-07T02:15:35.645Z,80.12
2017-07-07T02:17:37.116Z,81.09
2017-07-07T02:19:38.757Z,80.60
2017-07-07T02:21:40.209Z,81.62
2017-07-07T02:23:41.731Z,82.68
2017-07-07T02:25:43.199Z,83.22
2017-07-07T02:27:44.627Z,83.70
2017-07-07T02:29:46.060Z,83.61
2017-07-07T02:31:47.624Z,84.47
2017-07-07T02:33:49.194Z,84.81
2017-07-07T02:35:50.685Z,84.28
2017-07-07T02:37:52.369Z,84.28
2017-07-07T02:39:53.861Z,84.47
2017-07-07T02:41:55.290Z,85.14
2017-07-07T02:43:56.720Z,84.56
2017-07-07T02:45:58.148Z,85.20
2017-07-07T02:47:59.576Z,85.68
2017-07-07T02:50:01.076Z,85.49
2017-07-07T02:52:02.612Z,85.78
2017-07-07T02:54:04.183Z,85.39
2017-07-07T02:56:05.678Z,86.26
2017-07-07T02:58:07.168Z,86.26
2017-07-07T03:00:08.674Z,86.26
2017-07-07T03:02:10.361Z,85.43
2017-07-07T03:04:12.051Z,85.78
2017-07-07T03:06:13.801Z,85.14
2017-07-07T03:08:15.311Z,83.61
2017-07-07T03:10:16.778Z,84.09
2017-07-07T03:12:18.413Z,83.64
2017-07-07T03:14:19.917Z,85.20
2017-07-07T03:16:21.413Z,84.86
2017-07-07T03:18:22.896Z,85.14
2017-07-07T03:20:24.384Z,84.91
2017-07-07T03:22:25.868Z,85.68
2017-07-07T03:24:27.330Z,85.58
2017-07-07T03:26:28.771Z,85.30
2017-07-07T03:28:30.601Z,86.16
2017-07-07T03:30:32.077Z,86.07
2017-07-07T03:32:33.580Z,85.68
2017-07-07T03:34:35.203Z,84.81
2017-07-07T03:36:36.686Z,84.14
2017-07-07T03:38:38.195Z,83.37
2017-07-07T03:40:39.695Z,82.70
2017-07-07T03:42:41.211Z,82.89
2017-07-07T03:44:42.706Z,82.83
2017-07-07T03:46:44.169Z,83.12
2017-07-07T03:48:45.912Z,82.45
2017-07-07T03:50:47.670Z,82.26
2017-07-07T03:52:49.451Z,82.45
2017-07-07T03:54:51.023Z,81.77
2017-07-07T03:56:52.536Z,83.08
2017-07-07T03:58:54.038Z,82.70
2017-07-07T04:00:55.587Z,83.37
2017-07-07T04:02:57.286Z,83.28
2017-07-07T04:04:58.779Z,83.66
2017-07-07T04:07:00.585Z,82.79
2017-07-07T04:09:02.114Z,83.41
2017-07-07T04:11:03.637Z,82.83
2017-07-07T04:13:05.354Z,81.96
2017-07-07T04:15:06.884Z,82.54
2017-07-07T04:17:08.551Z,82.35
2017-07-07T04:19:10.293Z,82.10
2017-07-07T04:21:12.033Z,81.77
2017-07-07T04:23:13.874Z,81.14
2017-07-07T04:25:15.315Z,80.94
2017-07-07T04:27:17.003Z,80.76
2017-07-07T04:29:18.699Z,81.14
2017-07-07T04:31:20.202Z,81.14
2017-07-07T04:33:21.751Z,80.66
2017-07-07T04:35:23.232Z,80.37
2017-07-07T04:37:24.748Z,79.69
2017-07-07T04:39:26.580Z,79.50
2017-07-07T04:41:28.071Z,79.21
2017-07-07T04:43:29.547Z,80.08
2017-07-07T04:45:31.430Z,79.69
2017-07-07T04:47:33.156Z,80.46
2017-07-07T04:49:34.594Z,80.46
2017-07-07T04:51:36.087Z,80.27
2017-07-07T04:53:37.661Z,80.46
2017-07-07T04:55:39.390Z,80.79
2017-07-07T04:57:40.904Z,80.56
2017-07-07T04:59:42.592Z,81.14
2017-07-07T05:01:44.314Z,80.79
2017-07-07T05:03:45.929Z,81.09
2017-07-07T05:05:47.423Z,80.41
2017-07-07T05:07:48.925Z,80.69
2017-07-07T05:09:50.465Z,82.14
2017-07-07T05:11:52.142Z,81.37
2017-07-07T05:13:54.006Z,81.27
2017-07-07T05:15:55.732Z,81.37
2017-07-07T05:17:57.421Z,81.27
2017-07-07T05:19:59.125Z,80.79
2017-07-07T05:22:00.755Z,80.12
2017-07-07T05:24:02.553Z,80.02
2017-07-07T05:26:04.020Z,80.31
2017-07-07T05:28:05.538Z,80.41
2017-07-07T05:30:07.269Z,80.69
2017-07-07T05:32:09.051Z,79.97
2017-07-07T05:34:10.522Z,80.26
2017-07-07T05:36:12.078Z,78.91
2017-07-07T05:38:13.573Z,78.61
2017-07-07T05:40:15.241Z,79.24
2017-07-07T05:42:16.971Z,79.10
2017-07-07T05:44:18.661Z,77.69
2017-07-07T05:46:20.385Z,78.71
2017-07-07T05:48:22.063Z,78.75
2017-07-07T05:50:23.552Z,76.76
2017-07-07T05:52:25.360Z,75.74
2017-07-07T05:54:27.132Z,72.62
2017-07-07T05:56:28.774Z,70.27
2017-07-07T05:58:30.264Z,69.69
2017-07-07T06:00:31.782Z,68.76
2017-07-07T06:02:33.531Z,67.34
2017-07-07T06:04:35.036Z,64.01
2017-07-07T06:06:37.533Z,60.31
2017-07-07T06:08:39.235Z,59.74
2017-07-07T06:10:40.953Z,60.97
2017-07-07T06:12:42.770Z,62.46
2017-07-07T06:14:45.235Z,63.88
2017-07-07T06:16:47.307Z,65.53
2017-07-07T06:18:49.047Z,65.59
2017-07-07T06:20:50.804Z,67.14
2017-07-07T06:22:52.502Z,67.27
2017-07-07T06:24:54.300Z,66.60
2017-07-07T06:26:56.159Z,65.14
2017-07-07T06:28:58.033Z,62.91
2017-07-07T06:30:59.850Z,64.65
2017-07-07T06:33:01.447Z,65.40
2017-07-07T06:35:04.140Z,67.14
2017-07-07T06:37:05.994Z,68.66
2017-07-07T06:39:07.773Z,67.05
2017-07-07T06:41:09.621Z,63.07
2017-07-07T06:43:11.391Z,59.67
2017-07-07T06:45:13.235Z,53.52
2017-07-07T06:47:15.071Z,50.21
2017-07-07T06:49:16.910Z,48.78
2017-07-07T06:51:18.725Z,49.02
2017-07-07T06:53:21.353Z,53.65
2017-07-07T06:55:23.264Z,55.37
2017-07-07T06:57:25.078Z,52.85
2017-07-07T06:59:26.941Z,46.66
2017-07-07T07:01:28.853Z,50.16
2017-07-07T07:03:30.748Z,49.71
2017-07-07T07:05:32.524Z,47.80
2017-07-07T07:07:34.794Z,44.27
2017-07-07T07:09:36.584Z,39.84
2017-07-07T07:11:38.410Z,37.11
2017-07-07T07:13:39.976Z,35.57
2017-07-07T07:15:41.539Z,34.22
2017-07-07T07:17:43.139Z,36.20
2017-07-07T07:19:45.251Z,34.53
2017-07-07T07:21:47.467Z,36.87
2017-07-07T07:23:49.442Z,38.29
2017-07-07T07:25:51.051Z,40.39
2017-07-07T07:27:52.634Z,43.56
2017-07-07T07:29:54.327Z,45.45
2017-07-07T07:31:55.881Z,47.07
2017-07-07T07:33:57.393Z,49.49
2017-07-07T07:35:59.063Z,49.37
2017-07-07T07:38:00.584Z,51.34
2017-07-07T07:40:02.132Z,52.26
2017-07-07T07:42:03.703Z,55.44
2017-07-07T07:44:05.264Z,57.75
2017-07-07T07:46:07.168Z,58.57
2017-07-07T07:48:09.056Z,58.54
2017-07-07T07:50:10.918Z,60.09
2017-07-07T07:52:12.695Z,60.38
2017-07-07T07:54:14.392Z,65.01
2017-07-07T07:56:16.229Z,65.17
2017-07-07T07:58:18.047Z,65.37
2017-07-07T08:00:19.803Z,66.72
2017-07-07T08:02:21.780Z,67.11
2017-07-07T08:04:23.677Z,64.40
2017-07-07T08:06:25.562Z,67.18
2017-07-07T08:08:27.496Z,65.92
2017-07-07T08:10:29.403Z,68.92
2017-07-07T08:12:31.208Z,64.75
2017-07-07T08:14:33.213Z,66.50
2017-07-07T08:16:34.841Z,65.05
2017-07-07T08:18:36.884Z,67.76
2017-07-07T08:20:38.504Z,68.44
2017-07-07T08:22:40.078Z,67.79
2017-07-07T08:24:42.083Z,66.11
2017-07-07T08:26:43.920Z,64.30
2017-07-07T08:28:45.747Z,65.08
2017-07-07T08:30:47.880Z,62.95
2017-07-07T08:32:49.952Z,64.43
2017-07-07T08:34:51.854Z,63.07
2017-07-07T08:36:53.806Z,65.53
2017-07-07T08:38:55.435Z,63.68
2017-07-07T08:40:57.371Z,64.75
2017-07-07T08:42:59.366Z,62.04
2017-07-07T08:45:01.079Z,63.88
2017-07-07T08:47:02.924Z,64.92
2017-07-07T08:49:04.822Z,63.39
2017-07-07T08:51:06.741Z,65.17
2017-07-07T08:53:08.379Z,62.71
2017-07-07T08:55:10.213Z,63.23
2017-07-07T08:57:12.072Z,63.45
2017-07-07T08:59:13.621Z,60.35
2017-07-07T09:01:15.502Z,63.45
2017-07-07T09:03:17.092Z,61.51
2017-07-07T09:05:19.016Z,62.19
2017-07-07T09:07:20.872Z,61.93
2017-07-07T09:09:22.653Z,61.15
2017-07-07T09:11:24.519Z,61.90
2017-07-07T09:13:26.262Z,62.90
2017-07-07T09:15:27.975Z,61.54
2017-07-07T09:17:29.506Z,60.47
2017-07-07T09:19:31.071Z,60.02
2017-07-07T09:21:32.592Z,60.21
2017-07-07T09:23:34.145Z,61.34
2017-07-07T09:25:35.655Z,57.64
2017-07-07T09:27:37.100Z,59.36
2017-07-07T09:29:38.607Z,57.84
2017-07-07T09:31:40.173Z,58.51
2017-07-07T09:33:41.657Z,54.13
2017-07-07T09:35:43.175Z,57.18
2017-07-07T09:37:44.800Z,58.35
2017-07-07T09:39:46.302Z,56.60
2017-07-07T09:41:47.828Z,56.04
2017-07-07T09:43:49.408Z,56.70
2017-07-07T09:45:50.963Z,55.04
2017-07-07T09:47:52.540Z,55.04
2017-07-07T09:49:54.014Z,56.79
2017-07-07T09:51:55.560Z,58.13
2017-07-07T09:53:57.066Z,55.01
2017-07-07T09:55:58.578Z,56.25
2017-07-07T09:58:00.075Z,58.10
2017-07-07T10:00:01.596Z,55.96
2017-07-07T10:02:03.243Z,57.87
2017-07-07T10:04:04.740Z,59.53
2017-07-07T10:06:06.270Z,60.18
2017-07-07T10:08:07.707Z,57.78
2017-07-07T10:10:09.170Z,59.21
2017-07-07T10:12:10.858Z,59.05
2017-07-07T10:14:12.549Z,59.41
2017-07-07T10:16:14.081Z,59.69
2017-07-07T10:18:15.564Z,59.21
2017-07-07T10:20:17.000Z,59.11
2017-07-07T10:22:18.440Z,58.53
2017-07-07T10:24:19.884Z,57.95
2017-07-07T10:26:21.334Z,58.53
2017-07-07T10:28:22.769Z,59.23
2017-07-07T10:30:24.283Z,57.12
2017-07-07T10:32:25.730Z,57.10
2017-07-07T10:34:27.169Z,57.39
2017-07-07T10:36:28.611Z,59.14
2017-07-07T10:38:30.051Z,58.17
2017-07-07T10:40:31.494Z,59.82
2017-07-07T10:42:32.957Z,56.32
2017-07-07T10:44:34.399Z,57.49
2017-07-07T10:46:36.011Z,56.22
2017-07-07T10:48:37.505Z,59.27
2017-07-07T10:50:39.320Z,56.47
2017-07-07T10:52:41.137Z,54.75
2017-07-07T10:54:43.054Z,57.31
2017-07-07T10:56:44.590Z,55.52
2017-07-07T10:58:46.055Z,54.94
2017-07-07T11:00:47.497Z,52.77
2017-07-07T11:02:48.930Z,54.06
2017-07-07T11:04:50.402Z,55.21
2017-07-07T11:06:51.841Z,55.33
2017-07-07T11:08:53.293Z,54.43
2017-07-07T11:10:54.732Z,56.47
2017-07-07T11:12:56.178Z,56.11
2017-07-07T11:14:57.622Z,56.01
2017-07-07T11:16:59.061Z,54.68
2017-07-07T11:19:00.507Z,54.38
2017-07-07T11:21:01.976Z,56.33
2017-07-07T11:23:03.423Z,53.63
2017-07-07T11:25:04.893Z,54.31
2017-07-07T11:27:06.340Z,54.28
2017-07-07T11:29:07.783Z,54.11
2017-07-07T11:31:09.227Z,53.50
2017-07-07T11:33:10.673Z,55.89
2017-07-07T11:35:12.121Z,58.29
2017-07-07T11:37:54.555Z,57.32
2017-07-07T11:39:56.009Z,56.54
2017-07-07T11:41:57.453Z,56.35
2017-07-07T11:43:58.889Z,56.37
2017-07-07T11:46:00.347Z,56.18
2017-07-07T11:48:01.785Z,57.74
2017-07-07T11:50:03.225Z,55.82
2017-07-07T11:52:04.677Z,55.23
2017-07-07T11:54:06.110Z,55.52
2017-07-07T11:56:07.553Z,54.46
2017-07-07T11:58:08.998Z,54.94
2017-07-07T12:00:10.440Z,54.75
2017-07-07T12:02:11.879Z,56.57
2017-07-07T12:04:13.323Z,55.72
2017-07-07T12:06:14.765Z,55.65
2017-07-07T12:08:16.209Z,55.04
2017-07-07T12:10:17.650Z,56.37
2017-07-07T12:12:19.094Z,55.91
2017-07-07T12:14:20.537Z,55.82
2017-07-07T12:16:21.980Z,53.97
2017-07-07T12:18:23.431Z,55.23
2017-07-07T12:20:24.875Z,55.52
2017-07-07T12:22:26.394Z,53.41
2017-07-07T12:24:27.846Z,53.44
2017-07-07T12:26:29.288Z,51.78
2017-07-07T12:28:30.731Z,54.53
2017-07-07T12:30:32.177Z,54.83
2017-07-07T12:32:33.638Z,53.85
2017-07-07T12:34:35.095Z,51.39
2017-07-07T12:36:36.541Z,52.95
2017-07-07T12:38:37.991Z,52.26
2017-07-07T12:40:39.435Z,52.92
2017-07-07T12:42:40.904Z,54.97
2017-07-07T12:44:42.354Z,53.24
2017-07-07T12:46:43.807Z,52.97
2017-07-07T12:48:45.261Z,52.46
2017-07-07T12:50:46.712Z,54.97
2017-07-07T12:52:48.154Z,54.58
2017-07-07T12:54:49.590Z,54.77
2017-07-07T12:56:51.035Z,54.36
2017-07-07T12:58:52.474Z,55.01
2017-07-07T13:00:53.918Z,55.04
2017-07-07T13:02:55.358Z,55.52
2017-07-07T13:04:56.800Z,55.91
2017-07-07T13:06:58.245Z,54.46
2017-07-07T13:08:59.684Z,53.97
2017-07-07T13:11:01.123Z,54.46
2017-07-07T13:13:02.572Z,55.62
2017-07-07T13:15:04.023Z,55.13
2017-07-07T13:17:05.466Z,54.65
2017-07-07T13:19:06.908Z,55.50
2017-07-07T13:21:08.343Z,55.60
2017-07-07T13:23:09.784Z,55.99
2017-07-07T13:25:11.231Z,56.93
2017-07-07T13:27:12.673Z,58.78
2017-07-07T13:29:14.114Z,58.39
2017-07-07T13:31:15.556Z,57.93
2017-07-07T13:33:16.997Z,55.62
2017-07-07T13:35:18.440Z,54.68
2017-07-07T13:37:19.880Z,55.55
2017-07-07T13:39:21.323Z,52.92
2017-07-07T13:41:22.761Z,51.36
2017-07-07T13:43:24.207Z,54.06
2017-07-07T13:45:25.679Z,55.26
2017-07-07T13:47:27.137Z,55.36
2017-07-07T13:49:28.618Z,55.46
2017-07-07T13:51:30.068Z,53.50
2017-07-07T13:53:31.507Z,55.55
2017-07-07T13:55:32.952Z,55.36
2017-07-07T13:57:34.397Z,55.07
2017-07-07T13:59:35.913Z,55.46
2017-07-07T14:01:37.428Z,54.58
2017-07-07T14:03:38.883Z,54.97
2017-07-07T14:05:40.441Z,55.16
2017-07-07T14:07:41.965Z,54.68
2017-07-07T14:09:43.483Z,55.16
2017-07-07T14:11:45.046Z,54.19
2017-07-07T14:13:46.513Z,53.70
2017-07-07T14:15:48.114Z,54.97
2017-07-07T14:17:49.576Z,54.09
2017-07-07T14:19:51.074Z,54.97
2017-07-07T14:21:52.624Z,54.77
2017-07-07T14:23:54.176Z,54.41
2017-07-07T14:25:55.735Z,53.99
2017-07-07T14:27:57.258Z,54.99
2017-07-07T14:29:58.743Z,54.19
2017-07-07T14:32:00.312Z,54.36
2017-07-07T14:34:01.784Z,55.72
2017-07-07T14:36:03.359Z,54.82
2017-07-07T14:38:04.899Z,55.99
2017-07-07T14:40:06.395Z,56.64
2017-07-07T14:42:08.013Z,58.26
2017-07-07T14:44:09.529Z,58.56
2017-07-07T14:46:11.065Z,58.26
2017-07-07T14:48:12.611Z,58.33
2017-07-07T14:50:14.118Z,59.31
2017-07-07T14:52:15.680Z,60.47
2017-07-07T14:54:17.224Z,62.10
2017-07-07T14:56:18.844Z,61.71
2017-07-07T14:58:20.388Z,62.48
2017-07-07T15:00:21.880Z,62.48
2017-07-07T15:02:23.516Z,62.48
2017-07-07T15:04:25.362Z,63.17
2017-07-07T15:06:27.117Z,63.23
2017-07-07T15:08:28.630Z,63.91
2017-07-07T15:10:30.116Z,64.72
2017-07-07T15:12:31.647Z,64.69
2017-07-07T15:14:33.169Z,64.01
2017-07-07T15:16:34.673Z,64.98
2017-07-07T15:18:36.301Z,65.37
2017-07-07T15:20:37.757Z,65.82
2017-07-07T15:22:39.260Z,67.57
2017-07-07T15:24:40.834Z,68.60
2017-07-07T15:26:42.306Z,69.48
2017-07-07T15:28:43.838Z,71.03
2017-07-07T15:30:45.279Z,72.00
2017-07-07T15:32:46.730Z,73.65
2017-07-07T15:34:48.161Z,72.00
2017-07-07T15:36:49.600Z,73.16
2017-07-07T15:38:51.037Z,73.90
2017-07-07T15:40:52.508Z,73.71
2017-07-07T15:42:53.939Z,74.68
2017-07-07T15:44:55.374Z,74.77
2017-07-07T15:46:56.827Z,73.94
2017-07-07T15:48:58.313Z,75.01
2017-07-07T15:50:59.706Z,74.43
2017-07-07T15:53:01.139Z,73.65
2017-07-07T15:55:02.574Z,73.74
2017-07-07T15:57:04.016Z,72.39
2017-07-07T15:59:05.492Z,71.55
2017-07-07T16:01:06.974Z,71.64
2017-07-07T16:03:08.409Z,71.10
2017-07-07T16:05:09.862Z,70.55
2017-07-07T16:07:11.304Z,69.29
2017-07-07T16:09:12.763Z,70.06
2017-07-07T16:11:14.202Z,68.41
2017-07-07T16:13:15.639Z,69.54
2017-07-07T16:15:17.081Z,70.19
2017-07-07T16:17:18.524Z,70.00
2017-07-07T16:19:19.974Z,70.97
2017-07-07T16:21:21.412Z,70.54
2017-07-07T16:23:22.847Z,71.90
2017-07-07T16:25:24.284Z,70.93
2017-07-07T16:27:25.920Z,70.54
2017-07-07T16:29:27.565Z,71.03
2017-07-07T16:31:29.218Z,70.15
2017-07-07T16:33:30.953Z,68.47
2017-07-07T16:35:32.416Z,69.06
2017-07-07T16:37:33.977Z,67.79
2017-07-07T16:39:35.468Z,68.37
2017-07-07T16:41:36.968Z,67.14
2017-07-07T16:43:38.477Z,64.33
2017-07-07T16:45:39.975Z,63.75
2017-07-07T16:47:41.476Z,64.23
2017-07-07T16:49:42.985Z,63.88
2017-07-07T16:51:44.558Z,64.04
2017-07-07T16:53:46.068Z,64.23
2017-07-07T16:55:47.592Z,63.95
2017-07-07T16:57:49.120Z,63.68
2017-07-07T16:59:50.624Z,63.98
2017-07-07T17:01:52.143Z,64.26
2017-07-07T17:03:53.673Z,64.17
2017-07-07T17:05:55.224Z,63.88
2017-07-07T17:07:56.729Z,63.20
2017-07-07T17:09:58.250Z,63.49
2017-07-07T17:11:59.768Z,64.46
2017-07-07T17:14:01.270Z,64.56
2017-07-07T17:16:02.824Z,64.07
2017-07-07T17:18:04.336Z,64.56
2017-07-07T17:20:05.928Z,64.36
2017-07-07T17:22:07.483Z,64.36
2017-07-07T17:24:08.996Z,64.17
2017-07-07T17:26:10.575Z,63.98
2017-07-07T17:28:12.089Z,64.46
2017-07-07T17:30:13.659Z,63.20
2017-07-07T17:32:15.189Z,64.17
2017-07-07T17:34:16.716Z,64.56
2017-07-07T17:36:18.300Z,65.05
2017-07-07T17:38:19.835Z,65.24
2017-07-07T17:40:21.313Z,64.17
2017-07-07T17:42:22.759Z,64.11
2017-07-07T17:44:24.302Z,64.69
2017-07-07T17:46:25.970Z,64.78
2017-07-07T17:48:27.454Z,64.26
2017-07-07T17:50:28.992Z,64.75
2017-07-07T17:52:30.485Z,64.75
2017-07-07T17:54:32.028Z,64.40
2017-07-07T17:56:33.556Z,64.30
2017-07-07T17:58:35.002Z,64.40
2017-07-07T18:00:36.437Z,64.36
2017-07-07T18:02:37.877Z,64.75
2017-07-07T18:04:39.401Z,64.75
2017-07-07T18:06:40.840Z,64.95
2017-07-07T18:08:42.302Z,65.14
2017-07-07T18:10:43.775Z,64.95
2017-07-07T18:12:45.215Z,64.85
2017-07-07T18:14:46.652Z,65.05
2017-07-07T18:16:48.096Z,65.53
2017-07-07T18:18:49.528Z,65.53
2017-07-07T18:20:50.964Z,65.92
2017-07-07T18:22:52.433Z,66.21
2017-07-07T18:24:53.841Z,66.02
2017-07-07T18:26:55.281Z,66.60
2017-07-07T18:28:56.718Z,65.92
2017-07-07T18:30:58.162Z,65.92
2017-07-07T18:32:59.600Z,66.40
2017-07-07T18:35:01.029Z,66.02
2017-07-07T18:37:02.473Z,65.14
2017-07-07T18:39:03.912Z,65.24
2017-07-07T18:41:05.350Z,65.20
2017-07-07T18:43:06.798Z,65.98
2017-07-07T18:45:08.233Z,65.79
2017-07-07T18:47:09.677Z,65.50
2017-07-07T18:49:11.126Z,66.63
2017-07-07T18:51:12.567Z,66.53
2017-07-07T18:53:14.129Z,66.63
2017-07-07T18:55:15.624Z,66.44
2017-07-07T18:57:17.154Z,66.99
2017-07-07T18:59:18.747Z,67.50
2017-07-07T19:01:20.247Z,67.21
2017-07-07T19:03:21.737Z,67.21
2017-07-07T19:05:23.241Z,67.37
2017-07-07T19:07:24.896Z,67.47
2017-07-07T19:09:26.458Z,67.85
2017-07-07T19:11:28.005Z,67.57
2017-07-07T19:13:29.496Z,68.15
2017-07-07T19:15:31.020Z,67.85
2017-07-07T19:17:32.524Z,67.85
2017-07-07T19:19:34.040Z,68.15
2017-07-07T19:21:35.603Z,67.47
2017-07-07T19:23:37.162Z,66.99
2017-07-07T19:25:38.666Z,67.27
2017-07-07T19:27:40.201Z,67.08
2017-07-07T19:29:41.783Z,66.99
2017-07-07T19:31:43.290Z,67.37
2017-07-07T19:33:44.789Z,67.47
2017-07-07T19:35:46.300Z,67.18
2017-07-07T19:37:47.823Z,67.76
2017-07-07T19:39:49.339Z,67.57
2017-07-07T19:41:50.864Z,67.53
2017-07-07T19:43:52.416Z,68.02
2017-07-07T19:45:53.979Z,68.30
2017-07-07T19:47:55.461Z,68.79
2017-07-07T19:49:57.049Z,69.15
2017-07-07T19:51:58.563Z,70.11
2017-07-07T19:54:00.116Z,70.47
2017-07-07T19:56:01.900Z,70.37
2017-07-07T19:58:03.486Z,70.27
2017-07-07T20:00:04.992Z,70.37
2017-07-07T20:02:06.581Z,70.47
2017-07-07T20:04:08.083Z,69.98
2017-07-07T20:06:09.599Z,70.08
2017-07-07T20:08:11.136Z,70.08
2017-07-07T20:10:12.631Z,69.98
2017-07-07T20:12:14.116Z,69.40
2017-07-07T20:14:15.535Z,69.50
2017-07-07T20:16:16.972Z,70.08
2017-07-07T20:18:18.404Z,69.89
2017-07-07T20:20:19.841Z,69.79
2017-07-07T20:22:21.270Z,69.59
2017-07-07T20:24:22.710Z,69.50
2017-07-07T20:26:24.144Z,69.50
2017-07-07T20:28:25.577Z,69.50
2017-07-07T20:30:27.014Z,69.69
2017-07-07T20:32:28.454Z,69.59
2017-07-07T20:34:29.879Z,69.59
2017-07-07T20:36:31.300Z,69.98
2017-07-07T20:38:32.744Z,69.66
2017-07-07T20:40:34.179Z,70.14
2017-07-07T20:42:35.607Z,70.53
2017-07-07T20:44:37.039Z,70.78
2017-07-07T20:46:38.462Z,71.66
2017-07-07T20:48:39.979Z,72.20
2017-07-07T20:50:41.411Z,72.68
2017-07-07T20:52:42.855Z,72.30
2017-07-07T20:54:44.314Z,72.00
2017-07-07T20:56:45.963Z,71.75
2017-07-07T20:58:47.438Z,71.36
2017-07-07T21:00:48.977Z,71.46
2017-07-07T21:02:50.464Z,71.26
2017-07-07T21:04:51.893Z,71.56
2017-07-07T21:06:53.321Z,71.94
2017-07-07T21:08:54.765Z,72.20
2017-07-07T21:10:56.230Z,71.81
2017-07-07T21:12:57.691Z,72.58
2017-07-07T21:14:59.094Z,73.46
2017-07-07T21:17:00.522Z,73.13
2017-07-07T21:19:01.966Z,73.26
2017-07-07T21:21:03.397Z,72.88
2017-07-07T21:23:04.831Z,72.58
2017-07-07T21:25:06.267Z,72.58
2017-07-07T21:27:07.721Z,72.30
2017-07-07T21:29:09.296Z,72.30
2017-07-07T21:31:10.837Z,72.00
2017-07-07T21:33:12.407Z,71.91
2017-07-07T21:35:13.990Z,72.10
2017-07-07T21:37:15.537Z,72.20
2017-07-07T21:39:17.039Z,71.81
2017-07-07T21:41:18.464Z,72.39
2017-07-07T21:43:19.952Z,72.88
2017-07-07T21:45:21.421Z,72.88
2017-07-07T21:47:22.913Z,72.88
2017-07-07T21:49:24.342Z,72.39
2017-07-07T21:51:25.782Z,73.07
2017-07-07T21:53:27.214Z,72.49
2017-07-07T21:55:28.643Z,72.49
2017-07-07T21:57:30.077Z,72.49
2017-07-07T21:59:31.501Z,72.39
2017-07-07T22:01:32.933Z,72.58
2017-07-07T22:03:34.365Z,72.20
2017-07-07T22:05:35.788Z,72.58
2017-07-07T22:07:37.238Z,73.03
2017-07-07T22:09:38.713Z,73.16
2017-07-07T22:11:40.140Z,72.84
2017-07-07T22:13:41.634Z,73.16
2017-07-07T22:15:43.060Z,72.64
2017-07-07T22:17:44.489Z,73.22
2017-07-07T22:19:45.920Z,72.74
2017-07-07T22:21:47.454Z,73.42
2017-07-07T22:23:49.007Z,73.32
2017-07-07T22:25:50.550Z,73.32
2017-07-07T22:27:51.965Z,73.32
2017-07-07T22:29:53.410Z,73.61
2017-07-07T22:31:54.840Z,74.25
2017-07-07T22:33:56.271Z,74.48
2017-07-07T22:35:57.705Z,73.77
2017-07-07T22:37:59.133Z,74.00
2017-07-07T22:40:00.567Z,74.29
2017-07-07T22:42:02.094Z,74.58
2017-07-07T22:44:03.785Z,74.29
2017-07-07T22:46:05.290Z,74.38
2017-07-07T22:48:06.772Z,74.54
2017-07-07T22:50:08.330Z,74.93
2017-07-07T22:52:09.864Z,74.54
2017-07-07T22:54:11.466Z,75.18
2017-07-07T22:56:13.306Z,75.12
2017-07-07T22:58:15.103Z,75.37
2017-07-07T23:00:16.870Z,75.76
2017-07-07T23:02:18.409Z,76.40
2017-07-07T23:04:20.163Z,76.88
2017-07-07T23:06:21.910Z,76.50
2017-07-07T23:08:23.668Z,76.59
2017-07-07T23:10:25.482Z,76.68
2017-07-07T23:12:27.222Z,76.20
2017-07-07T23:14:28.974Z,76.05
2017-07-07T23:16:30.588Z,76.34
2017-07-07T23:18:32.100Z,76.34
2017-07-07T23:20:33.572Z,75.67
2017-07-07T23:22:35.103Z,75.67
2017-07-07T23:24:36.595Z,76.20
2017-07-07T23:26:38.118Z,76.24
2017-07-07T23:28:39.634Z,76.10
2017-07-07T23:30:41.186Z,76.50
2017-07-07T23:32:42.948Z,76.20
2017-07-07T23:34:44.689Z,76.20
2017-07-07T23:36:46.553Z,76.20
2017-07-07T23:38:48.208Z,76.59
2017-07-07T23:40:49.992Z,76.59
2017-07-07T23:42:51.726Z,76.68
2017-07-07T23:44:53.475Z,76.10
2017-07-07T23:46:55.296Z,76.20
2017-07-07T23:48:57.033Z,75.72
2017-07-07T23:50:58.728Z,76.10
2017-07-07T23:53:00.240Z,76.30
2017-07-07T23:55:01.739Z,76.30
2017-07-07T23:57:03.262Z,76.10
2017-07-07T23:59:04.752Z,75.82
